createdAt,value
2023-02-01T00:03:50.869Z,101344.06
2023-02-01T00:08:55.336Z,101338.63
2023-02-01T00:13:57.893Z,101338.63
2023-02-01T00:19:05.106Z,101343.50
2023-02-01T00:24:09.653Z,101345.59
2023-02-01T00:29:19.417Z,101347.84
2023-02-01T00:34:21.373Z,101341.28
2023-02-01T00:39:25.170Z,101330.94
2023-02-01T00:44:29.450Z,101330.69
2023-02-01T00:49:36.549Z,101322.16
2023-02-01T00:54:40.308Z,101327.47
2023-02-01T00:59:44.176Z,101314.31
2023-02-01T01:04:45.935Z,101310.84
2023-02-01T01:09:52.320Z,101301.19
2023-02-01T01:14:55.023Z,101290.72
2023-02-01T01:20:00.130Z,101280.50
2023-02-01T01:25:04.177Z,101281.91
2023-02-01T01:30:06.474Z,101281.78
2023-02-01T01:35:11.077Z,101276.19
2023-02-01T01:40:15.391Z,101253.28
2023-02-01T01:45:30.408Z,101240.00
2023-02-01T01:50:53.405Z,101244.06
2023-02-01T01:55:57.062Z,101237.94
2023-02-01T02:00:58.853Z,101255.63
2023-02-01T02:06:15.270Z,101223.72
2023-02-01T02:11:20.833Z,101214.19
2023-02-01T02:16:43.950Z,101209.19
2023-02-01T02:22:24.117Z,101210.31
2023-02-01T02:27:49.315Z,101209.69
2023-02-01T02:33:12.864Z,101186.69
2023-02-01T02:38:33.701Z,101186.56
2023-02-01T02:44:05.905Z,101183.63
2023-02-01T02:49:16.280Z,101174.56
2023-02-01T02:54:47.612Z,101166.19
2023-02-01T03:00:10.135Z,101149.81
2023-02-01T03:10:27.987Z,101116.38
2023-02-01T03:15:58.622Z,101102.16
2023-02-01T03:21:02.350Z,101111.78
2023-02-01T03:26:07.403Z,101089.34
2023-02-01T03:31:09.357Z,101081.16
2023-02-01T03:36:27.455Z,101097.63
2023-02-01T03:41:40.156Z,101081.28
2023-02-01T03:47:05.337Z,101087.25
2023-02-01T03:52:14.580Z,101070.91
2023-02-01T03:57:24.977Z,101073.31
2023-02-01T04:02:29.887Z,101060.63
2023-02-01T04:07:33.943Z,101058.44
2023-02-01T04:12:36.819Z,101050.19
2023-02-01T04:17:39.553Z,101088.69
2023-02-01T04:22:44.529Z,101059.13
2023-02-01T04:27:46.225Z,101051.19
2023-02-01T04:32:52.534Z,101077.28
2023-02-01T04:37:54.184Z,101059.72
2023-02-01T04:43:00.720Z,101038.59
2023-02-01T04:48:02.520Z,101037.03
2023-02-01T04:53:05.629Z,101027.41
2023-02-01T04:58:07.317Z,101027.47
2023-02-01T05:03:11.114Z,101022.56
2023-02-01T05:08:17.639Z,101030.84
2023-02-01T05:13:40.634Z,101034.88
2023-02-01T05:18:42.368Z,101068.31
2023-02-01T05:24:05.319Z,101055.59
2023-02-01T05:29:07.904Z,101059.31
2023-02-01T05:34:17.229Z,101052.19
2023-02-01T05:39:21.506Z,101054.66
2023-02-01T05:44:23.176Z,101042.41
2023-02-01T05:49:24.918Z,101051.03
2023-02-01T05:54:26.570Z,101060.53
2023-02-01T05:59:31.359Z,101065.22
2023-02-01T06:04:33.697Z,101066.81
2023-02-01T06:09:37.972Z,101082.75
2023-02-01T06:14:44.608Z,101083.72
2023-02-01T06:19:49.464Z,101084.44
2023-02-01T06:24:51.261Z,101086.34
2023-02-01T06:29:56.091Z,101082.44
2023-02-01T06:35:02.688Z,101087.03
2023-02-01T06:40:05.736Z,101086.75
2023-02-01T06:45:11.725Z,101090.19
2023-02-01T06:50:21.657Z,101091.69
2023-02-01T06:55:23.580Z,101094.69
2023-02-01T07:00:32.500Z,101099.69
2023-02-01T07:05:36.224Z,101092.28
2023-02-01T07:10:40.375Z,101085.84
2023-02-01T07:15:47.842Z,101095.84
2023-02-01T07:20:53.829Z,101100.72
2023-02-01T07:26:00.728Z,101109.06
2023-02-01T07:31:06.494Z,101102.16
2023-02-01T07:36:13.892Z,101112.53
2023-02-01T07:41:18.937Z,101118.94
2023-02-01T07:46:20.769Z,101120.09
2023-02-01T07:51:23.766Z,101123.31
2023-02-01T07:56:26.484Z,101132.00
2023-02-01T08:01:30.508Z,101124.34
2023-02-01T08:06:33.707Z,101123.47
2023-02-01T08:11:38.966Z,101117.19
2023-02-01T08:16:45.640Z,101121.66
2023-02-01T08:21:49.734Z,101113.03
2023-02-01T08:26:51.895Z,101127.13
2023-02-01T08:31:58.229Z,101118.22
2023-02-01T08:37:00.937Z,101113.78
2023-02-01T08:42:23.250Z,101124.78
2023-02-01T08:47:25.071Z,101136.66
2023-02-01T08:52:30.717Z,101131.63
2023-02-01T08:57:38.704Z,101115.88
2023-02-01T09:02:44.369Z,101107.19
2023-02-01T09:07:49.103Z,101106.91
2023-02-01T09:12:51.029Z,101093.63
2023-02-01T09:17:53.209Z,101101.41
2023-02-01T09:22:58.494Z,101079.56
2023-02-01T09:28:02.306Z,101080.38
2023-02-01T09:33:06.475Z,101074.34
2023-02-01T09:38:11.263Z,101076.25
2023-02-01T09:43:49.386Z,101061.81
2023-02-01T09:48:56.029Z,101060.88
2023-02-01T09:54:12.396Z,101040.44
2023-02-01T09:59:26.217Z,101038.63
2023-02-01T10:04:28.082Z,101036.78
2023-02-01T10:09:58.142Z,101029.94
2023-02-01T10:15:34.261Z,101028.81
2023-02-01T10:20:43.688Z,101020.19
2023-02-01T10:25:52.898Z,101007.25
2023-02-01T10:30:59.645Z,101028.53
2023-02-01T10:36:15.082Z,101010.91
2023-02-01T10:41:22.399Z,101003.75
2023-02-01T10:46:29.749Z,101032.41
2023-02-01T10:51:44.619Z,101007.59
2023-02-01T10:56:49.106Z,101044.66
2023-02-01T11:01:51.715Z,101057.13
2023-02-01T11:07:19.523Z,101041.75
2023-02-01T11:12:39.892Z,101041.16
2023-02-01T11:17:46.714Z,101057.19
2023-02-01T11:22:55.886Z,101062.41
2023-02-01T11:28:02.777Z,101074.69
2023-02-01T11:33:07.242Z,101084.63
2023-02-01T11:38:40.347Z,101018.88
2023-02-01T11:43:59.550Z,101005.88
2023-02-01T11:49:25.179Z,100992.03
2023-02-01T11:54:42.494Z,100985.56
2023-02-01T12:00:05.234Z,100995.91
2023-02-01T12:05:29.075Z,101009.81
2023-02-01T12:10:43.879Z,101015.31
2023-02-01T12:16:31.198Z,101016.06
2023-02-01T12:21:47.300Z,101024.53
2023-02-01T12:27:18.899Z,101021.25
2023-02-01T12:32:38.050Z,101027.66
2023-02-01T12:37:52.212Z,101005.03
2023-02-01T12:43:02.675Z,101005.72
2023-02-01T12:48:31.733Z,101000.91
2023-02-01T12:53:48.558Z,100980.72
2023-02-01T12:58:55.714Z,100978.56
2023-02-01T13:04:07.027Z,100963.63
2023-02-01T13:09:08.787Z,100983.88
2023-02-01T13:14:38.687Z,100966.25
2023-02-01T13:20:08.450Z,100962.44
2023-02-01T13:25:19.130Z,100958.31
2023-02-01T13:30:56.796Z,100946.25
2023-02-01T13:36:05.819Z,100957.25
2023-02-01T13:41:28.979Z,100959.38
2023-02-01T13:46:31.250Z,100933.06
2023-02-01T13:51:41.902Z,100948.06
2023-02-01T13:56:46.146Z,100944.59
2023-02-01T14:01:48.534Z,100989.94
2023-02-01T14:06:56.384Z,100978.09
2023-02-01T14:12:40.132Z,100978.97
2023-02-01T14:17:42.346Z,101020.72
2023-02-01T14:22:48.152Z,100993.75
2023-02-01T14:27:56.962Z,100997.28
2023-02-01T14:33:01.029Z,101005.41
2023-02-01T14:38:12.215Z,101016.13
2023-02-01T14:43:23.655Z,101049.69
2023-02-01T14:48:37.708Z,101048.44
2023-02-01T14:53:43.967Z,101004.19
2023-02-01T14:59:10.811Z,101036.28
2023-02-01T15:04:19.567Z,101024.53
2023-02-01T15:09:36.018Z,101039.75
2023-02-01T15:14:46.307Z,101043.25
2023-02-01T15:19:58.542Z,101049.81
2023-02-01T15:25:04.221Z,101053.28
2023-02-01T15:30:08.350Z,101061.25
2023-02-01T15:35:37.228Z,101067.00
2023-02-01T15:40:39.061Z,101081.91
2023-02-01T15:45:41.133Z,101091.56
2023-02-01T15:50:42.960Z,101089.63
2023-02-01T15:55:48.712Z,101092.38
2023-02-01T16:01:05.701Z,101086.25
2023-02-01T16:06:10.407Z,101100.66
2023-02-01T16:11:33.411Z,101119.91
2023-02-01T16:16:37.631Z,101123.19
2023-02-01T16:21:39.521Z,101118.66
2023-02-01T16:26:46.249Z,101123.09
2023-02-01T16:31:53.356Z,101133.63
2023-02-01T16:36:58.334Z,101143.81
2023-02-01T16:42:01.418Z,101141.75
2023-02-01T16:47:03.997Z,101157.72
2023-02-01T16:52:10.063Z,101144.75
2023-02-01T16:57:15.727Z,101156.56
2023-02-01T17:02:23.307Z,101155.84
2023-02-01T17:07:25.040Z,101161.72
2023-02-01T17:12:30.859Z,101159.50
2023-02-01T17:17:39.244Z,101166.94
2023-02-01T17:22:41.276Z,101168.53
2023-02-01T17:27:44.109Z,101173.31
2023-02-01T17:32:48.353Z,101190.78
2023-02-01T17:37:51.523Z,101186.47
2023-02-01T17:42:57.864Z,101188.06
2023-02-01T17:48:07.380Z,101202.84
2023-02-01T17:53:16.729Z,101202.91
2023-02-01T17:58:19.956Z,101205.41
2023-02-01T18:03:30.355Z,101203.97
2023-02-01T18:08:35.454Z,101209.56
2023-02-01T18:13:40.701Z,101216.38
2023-02-01T18:18:50.117Z,101207.28
2023-02-01T18:24:02.757Z,101203.78
2023-02-01T18:29:06.922Z,101204.91
2023-02-01T18:34:10.227Z,101204.25
2023-02-01T18:39:12.020Z,101210.91
2023-02-01T18:44:15.455Z,101219.38
2023-02-01T18:49:20.312Z,101220.50
2023-02-01T18:54:24.558Z,101217.44
2023-02-01T18:59:28.502Z,101221.53
2023-02-01T19:04:30.362Z,101234.84
2023-02-01T19:09:40.351Z,101228.00
2023-02-01T19:14:44.620Z,101224.25
2023-02-01T19:19:50.570Z,101230.53
2023-02-01T19:24:54.562Z,101240.72
2023-02-01T19:30:02.460Z,101244.66
2023-02-01T19:35:08.139Z,101244.81
2023-02-01T19:40:14.488Z,101244.56
2023-02-01T19:45:16.488Z,101254.34
2023-02-01T19:50:20.720Z,101259.25
2023-02-01T19:55:23.022Z,101275.84
2023-02-01T20:00:26.521Z,101252.56
2023-02-01T20:05:32.916Z,101269.03
2023-02-01T20:10:37.039Z,101280.16
2023-02-01T20:15:43.878Z,101280.22
2023-02-01T20:20:48.131Z,101283.28
2023-02-01T20:25:53.162Z,101285.81
2023-02-01T20:30:59.800Z,101301.03
2023-02-01T20:36:01.633Z,101293.34
2023-02-01T20:41:11.403Z,101304.78
2023-02-01T20:46:14.964Z,101322.94
2023-02-01T20:51:18.881Z,101321.13
2023-02-01T20:56:20.708Z,101326.56
2023-02-01T21:01:24.970Z,101328.56
2023-02-01T21:06:29.083Z,101335.94
2023-02-01T21:11:33.233Z,101343.47
2023-02-01T21:16:37.534Z,101336.63
2023-02-01T21:21:42.089Z,101341.66
2023-02-01T21:26:46.134Z,101346.81
2023-02-01T21:31:54.750Z,101366.50
2023-02-01T21:36:59.357Z,101363.72
2023-02-01T21:42:17.061Z,101364.41
2023-02-01T21:47:26.143Z,101378.69
2023-02-01T21:52:31.064Z,101384.41
2023-02-01T21:57:33.161Z,101381.22
2023-02-01T22:02:37.751Z,101377.31
2023-02-01T22:07:42.887Z,101377.03
2023-02-01T22:12:47.702Z,101368.81
2023-02-01T22:17:53.974Z,101378.44
2023-02-01T22:22:58.169Z,101397.47
2023-02-01T22:28:30.777Z,101403.88
2023-02-01T22:33:24.294Z,101407.03
2023-02-01T22:38:27.069Z,101414.41
2023-02-01T22:43:29.111Z,101420.72
2023-02-01T22:48:31.778Z,101418.53
2023-02-01T22:53:38.034Z,101421.06
2023-02-01T22:58:45.546Z,101420.34
2023-02-01T23:03:49.684Z,101437.13
2023-02-01T23:09:00.923Z,101441.31
2023-02-01T23:14:04.598Z,101465.91
2023-02-01T23:19:06.336Z,101458.38
2023-02-01T23:24:11.179Z,101465.91
2023-02-01T23:29:17.332Z,101468.78
2023-02-01T23:34:21.304Z,101478.81
2023-02-01T23:39:25.334Z,101460.78
2023-02-01T23:44:29.651Z,101477.16
2023-02-01T23:49:31.358Z,101479.41
2023-02-01T23:54:33.258Z,101477.78
2023-02-01T23:59:38.479Z,101489.13
